Time;durP1;ratioP1;P1;durP2;ratioP2;P2;SDS_P1;SDS_P2;PMS_P1;PMS_P2;Temp;Humidity;BMP_temperature;BMP_pressure;BME280_temperature;BME280_humidity;BME280_pressure;Samples;Min_cycle;Max_cycle;Signal;HPM_P1;HPM_P2
2023/05/11 00:00:09;;;;;;;16.47;14.93;;;15.10;1.00;;;;;;5001608;28;20459;-74
2023/05/11 00:02:36;;;;;;;16.43;14.93;;;15.10;1.00;;;;;;5009060;28;20479;-80
2023/05/11 00:05:04;;;;;;;16.07;14.53;;;15.10;1.00;;;;;;5003641;28;20482;-80
2023/05/11 00:07:31;;;;;;;22.40;18.30;;;15.00;1.00;;;;;;5009402;28;21459;-79
2023/05/11 00:09:58;;;;;;;18.50;16.70;;;15.00;1.00;;;;;;5007202;28;20461;-79
2023/05/11 00:12:24;;;;;;;18.50;16.17;;;15.00;1.00;;;;;;5008550;28;20477;-80
2023/05/11 00:14:53;;;;;;;18.23;16.60;;;14.90;1.00;;;;;;5007820;28;20513;-79
2023/05/11 00:17:23;;;;;;;18.33;16.53;;;14.80;1.00;;;;;;5008371;28;20509;-80
2023/05/11 00:19:50;;;;;;;18.03;16.30;;;14.80;1.00;;;;;;5006242;28;20469;-79
2023/05/11 00:22:17;;;;;;;17.83;16.10;;;14.70;1.00;;;;;;5014080;28;20465;-79
2023/05/11 00:24:44;;;;;;;18.17;16.37;;;14.70;1.00;;;;;;5004701;28;20560;-80
2023/05/11 00:27:11;;;;;;;18.37;16.40;;;14.70;1.00;;;;;;5004352;28;20507;-80
2023/05/11 00:29:38;;;;;;;17.80;15.90;;;14.70;1.00;;;;;;5006900;28;20553;-80
2023/05/11 00:32:06;;;;;;;17.93;16.20;;;14.70;1.00;;;;;;5007584;28;20477;-80
2023/05/11 00:34:33;;;;;;;18.97;16.97;;;14.70;1.00;;;;;;5006260;28;20466;-81
2023/05/11 00:37:00;;;;;;;18.50;16.60;;;14.60;1.00;;;;;;4986451;28;20483;-80
2023/05/11 00:39:27;;;;;;;20.50;18.47;;;14.50;1.00;;;;;;5008605;28;20469;-80
2023/05/11 00:41:54;;;;;;;17.13;15.53;;;14.40;1.00;;;;;;5011493;28;20501;-78
2023/05/11 00:44:21;;;;;;;17.43;15.93;;;14.40;1.00;;;;;;5005826;28;20897;-81
2023/05/11 00:46:50;;;;;;;18.77;16.97;;;14.30;1.00;;;;;;5009221;28;20444;-79
2023/05/11 00:49:21;;;;;;;18.93;17.13;;;14.20;1.00;;;;;;5005452;28;20474;-79
2023/05/11 00:51:48;;;;;;;16.53;15.13;;;14.10;1.00;;;;;;5005438;28;21153;-80
2023/05/11 00:54:16;;;;;;;19.20;17.17;;;14.00;1.00;;;;;;5005045;28;21205;-79
2023/05/11 00:56:43;;;;;;;18.70;16.80;;;14.00;1.00;;;;;;5003544;28;20472;-78
2023/05/11 00:59:12;;;;;;;16.70;15.13;;;13.90;1.00;;;;;;5008738;28;20548;-79
2023/05/11 01:01:39;;;;;;;16.23;14.80;;;13.90;1.00;;;;;;5006311;28;20477;-80
2023/05/11 01:04:07;;;;;;;18.17;16.30;;;13.90;1.00;;;;;;5008083;28;20974;-80
2023/05/11 01:06:45;;;;;;;16.60;15.20;;;13.90;1.00;;;;;;5005558;28;20497;-80
2023/05/11 01:09:27;;;;;;;17.27;15.57;;;13.80;1.00;;;;;;5000046;28;20824;-80
2023/05/11 01:12:06;;;;;;;17.87;16.20;;;13.80;1.00;;;;;;5007598;28;20479;-79
2023/05/11 01:14:41;;;;;;;21.07;18.80;;;13.80;1.00;;;;;;5006902;28;20475;-80
2023/05/11 01:17:15;;;;;;;17.53;16.03;;;13.80;1.00;;;;;;5008352;28;20488;-80
2023/05/11 01:19:48;;;;;;;18.83;17.13;;;13.80;1.00;;;;;;5000687;28;20526;-80
2023/05/11 01:22:30;;;;;;;18.70;17.10;;;13.90;1.00;;;;;;5007316;28;20500;-79
2023/05/11 01:25:11;;;;;;;19.53;17.60;;;13.90;1.00;;;;;;5007769;28;20856;-80
2023/05/11 01:27:57;;;;;;;18.37;16.77;;;13.90;1.00;;;;;;5004511;28;20469;-80
2023/05/11 01:30:30;;;;;;;19.97;18.27;;;13.90;1.00;;;;;;5005610;28;21330;-81
2023/05/11 01:33:03;;;;;;;18.50;17.00;;;13.90;1.00;;;;;;5002672;28;20484;-80
2023/05/11 01:35:34;;;;;;;19.90;18.00;;;13.80;1.00;;;;;;5004310;28;20466;-80
2023/05/11 01:38:03;;;;;;;19.17;17.57;;;13.80;1.00;;;;;;5009595;28;20461;-79
2023/05/11 01:40:34;;;;;;;18.53;16.93;;;13.80;1.00;;;;;;5009419;28;20560;-78
2023/05/11 01:43:04;;;;;;;20.23;18.53;;;13.80;1.00;;;;;;5007439;28;20662;-81
2023/05/11 01:45:37;;;;;;;18.50;17.00;;;13.70;1.00;;;;;;5005201;28;21252;-80
2023/05/11 01:48:07;;;;;;;18.57;16.90;;;13.70;1.00;;;;;;5000708;28;20463;-80
2023/05/11 01:50:35;;;;;;;19.07;17.43;;;13.70;1.00;;;;;;4999486;28;20469;-79
2023/05/11 01:53:03;;;;;;;17.50;15.90;;;13.70;1.00;;;;;;5002450;28;20473;-80
2023/05/11 01:55:34;;;;;;;18.13;16.53;;;13.70;1.00;;;;;;5001070;28;20462;-80
2023/05/11 01:58:03;;;;;;;18.23;16.63;;;13.70;1.00;;;;;;5001792;28;20572;-80
2023/05/11 02:00:33;;;;;;;17.40;15.80;;;13.70;1.00;;;;;;5002547;28;21202;-80
2023/05/11 02:03:03;;;;;;;19.17;17.57;;;13.70;1.00;;;;;;5003489;28;20586;-79
2023/05/11 02:05:31;;;;;;;18.70;17.10;;;13.70;1.00;;;;;;5008846;28;20466;-79
2023/05/11 02:08:00;;;;;;;19.80;17.90;;;13.60;1.00;;;;;;5001231;28;20909;-79
2023/05/11 02:10:30;;;;;;;18.80;17.20;;;13.60;1.00;;;;;;5001734;28;20479;-80
2023/05/11 02:12:59;;;;;;;18.67;17.10;;;13.60;1.00;;;;;;5001750;28;20489;-80
2023/05/11 02:15:28;;;;;;;17.13;15.50;;;13.60;1.00;;;;;;5004402;28;20458;-81
2023/05/11 02:17:57;;;;;;;17.77;16.23;;;13.60;1.00;;;;;;5002646;28;20931;-80
2023/05/11 02:20:25;;;;;;;19.17;17.47;;;13.50;1.00;;;;;;5003192;28;20459;-81
2023/05/11 02:22:54;;;;;;;16.93;15.60;;;13.50;1.00;;;;;;5004419;28;20464;-80
2023/05/11 02:25:24;;;;;;;18.00;16.50;;;13.40;1.00;;;;;;5014240;28;21300;-81
2023/05/11 02:27:51;;;;;;;19.93;17.83;;;13.40;1.00;;;;;;5010634;28;20480;-80
2023/05/11 02:30:18;;;;;;;17.60;16.00;;;13.40;1.00;;;;;;5004356;28;20484;-81
2023/05/11 02:32:51;;;;;;;19.33;17.43;;;13.40;1.00;;;;;;5002965;28;20500;-80
2023/05/11 02:35:24;;;;;;;18.10;16.33;;;13.30;1.00;;;;;;5005903;28;20448;-80
2023/05/11 02:37:56;;;;;;;17.40;15.90;;;13.30;1.00;;;;;;5008905;28;20478;-80
2023/05/11 02:40:28;;;;;;;17.30;15.80;;;13.20;1.00;;;;;;5009480;28;20987;-80
2023/05/11 02:42:59;;;;;;;18.33;16.57;;;13.20;1.00;;;;;;5010420;28;20468;-79
2023/05/11 02:45:30;;;;;;;17.97;16.27;;;13.20;1.00;;;;;;5003829;28;20472;-79
2023/05/11 02:48:00;;;;;;;17.37;15.97;;;13.10;1.00;;;;;;4981096;28;20564;-79
2023/05/11 02:50:30;;;;;;;15.50;14.20;;;13.20;1.00;;;;;;5003688;28;20634;-79
2023/05/11 02:53:03;;;;;;;18.17;16.47;;;13.10;1.00;;;;;;5011301;28;20933;-81
2023/05/11 02:55:32;;;;;;;16.77;15.17;;;13.10;1.00;;;;;;5013206;28;20595;-80
2023/05/11 02:57:59;;;;;;;16.47;15.17;;;13.10;1.00;;;;;;5010993;28;20527;-80
2023/05/11 03:00:26;;;;;;;17.10;15.60;;;13.10;1.00;;;;;;5008870;28;20497;-81
2023/05/11 03:02:53;;;;;;;18.13;16.30;;;13.10;1.00;;;;;;5008195;28;20554;-80
2023/05/11 03:05:20;;;;;;;18.73;16.97;;;13.00;1.00;;;;;;5012241;28;20610;-81
2023/05/11 03:07:49;;;;;;;16.97;15.47;;;13.00;1.00;;;;;;5009653;28;20924;-80
2023/05/11 03:10:16;;;;;;;18.23;16.53;;;12.90;1.00;;;;;;5013179;28;20478;-81
2023/05/11 03:12:44;;;;;;;17.17;15.70;;;12.90;1.00;;;;;;5015325;28;20835;-81
2023/05/11 03:15:11;;;;;;;19.00;17.17;;;12.90;1.00;;;;;;5012624;28;20521;-80
2023/05/11 03:17:40;;;;;;;17.07;15.67;;;12.90;1.00;;;;;;5013071;28;20453;-82
2023/05/11 03:20:09;;;;;;;15.73;14.20;;;12.80;1.00;;;;;;5012712;28;20530;-80
2023/05/11 03:22:37;;;;;;;16.03;14.80;;;12.80;1.00;;;;;;5013069;28;20506;-80
2023/05/11 03:25:08;;;;;;;17.33;15.73;;;12.80;1.00;;;;;;5012416;28;20555;-81
2023/05/11 03:27:36;;;;;;;17.57;15.97;;;12.80;1.00;;;;;;5010873;28;20995;-80
2023/05/11 03:30:07;;;;;;;17.40;15.10;;;12.80;1.00;;;;;;5007944;28;20662;-80
2023/05/11 03:32:34;;;;;;;16.83;15.30;;;12.80;1.00;;;;;;5014022;28;20482;-80
2023/05/11 03:35:03;;;;;;;17.33;15.73;;;12.80;1.00;;;;;;5010017;28;21269;-82
2023/05/11 03:37:33;;;;;;;17.33;15.77;;;12.80;1.00;;;;;;5012712;28;20460;-80
2023/05/11 03:40:00;;;;;;;16.70;15.13;;;12.80;1.00;;;;;;5007598;28;20429;-80
2023/05/11 03:42:33;;;;;;;16.63;15.20;;;12.70;1.00;;;;;;5011639;28;20466;-79
2023/05/11 03:45:01;;;;;;;16.90;15.50;;;12.60;1.00;;;;;;5002768;28;20506;-79
2023/05/11 03:47:29;;;;;;;14.97;13.37;;;12.70;1.00;;;;;;5006364;28;20435;-80
2023/05/11 03:49:57;;;;;;;16.03;14.47;;;12.70;1.00;;;;;;5011521;28;20604;-81
2023/05/11 03:52:25;;;;;;;16.13;14.40;;;12.80;1.00;;;;;;5008251;28;20475;-80
2023/05/11 03:54:52;;;;;;;16.77;15.27;;;12.80;1.00;;;;;;5007208;28;20463;-81
2023/05/11 03:57:20;;;;;;;15.93;14.27;;;12.80;1.00;;;;;;5007162;28;20972;-81
2023/05/11 03:59:48;;;;;;;16.23;14.50;;;12.80;1.00;;;;;;5006917;28;20542;-81
2023/05/11 04:02:15;;;;;;;14.83;13.50;;;12.80;1.00;;;;;;5003846;28;20483;-81
2023/05/11 04:04:44;;;;;;;14.27;12.97;;;12.80;1.00;;;;;;4998949;28;20425;-81
2023/05/11 04:07:12;;;;;;;18.13;16.53;;;12.80;1.00;;;;;;5007948;28;20473;-81
2023/05/11 04:09:39;;;;;;;15.90;14.40;;;12.80;1.00;;;;;;5002289;28;20538;-80
2023/05/11 04:12:07;;;;;;;14.50;13.20;;;12.90;1.00;;;;;;5009958;28;20481;-81
2023/05/11 04:14:35;;;;;;;14.43;13.13;;;12.80;1.00;;;;;;5004222;28;20566;-80
2023/05/11 04:17:03;;;;;;;20.13;18.40;;;12.90;1.00;;;;;;5005334;28;20986;-81
2023/05/11 04:19:31;;;;;;;14.87;13.47;;;12.90;1.00;;;;;;5008897;28;20452;-81
2023/05/11 04:21:58;;;;;;;14.90;13.60;;;12.90;1.00;;;;;;5016079;28;21082;-81
2023/05/11 04:24:25;;;;;;;11.90;10.77;;;12.90;1.00;;;;;;5010790;28;21278;-81
2023/05/11 04:26:56;;;;;;;13.77;12.57;;;13.00;1.00;;;;;;5002187;28;21334;-81
2023/05/11 04:29:23;;;;;;;13.37;12.37;;;13.00;1.00;;;;;;5006680;28;21098;-80
2023/05/11 04:31:50;;;;;;;14.63;13.20;;;12.90;1.00;;;;;;5011147;28;20460;-79
2023/05/11 04:34:19;;;;;;;13.10;11.90;;;13.00;1.00;;;;;;5008221;28;20461;-82
2023/05/11 04:36:48;;;;;;;13.10;11.93;;;13.00;1.00;;;;;;5008375;28;20531;-82
2023/05/11 04:39:16;;;;;;;12.00;10.97;;;13.10;1.00;;;;;;5006454;28;20452;-81
2023/05/11 04:41:42;;;;;;;12.83;11.73;;;13.00;1.00;;;;;;5007047;28;20566;-82
2023/05/11 04:44:10;;;;;;;21.27;12.47;;;12.90;1.00;;;;;;4996894;28;20461;-78
2023/05/11 04:46:38;;;;;;;11.90;11.00;;;12.90;1.00;;;;;;5000361;28;20455;-78
2023/05/11 04:49:05;;;;;;;14.47;13.27;;;13.00;1.00;;;;;;5001243;28;21263;-78
2023/05/11 04:51:34;;;;;;;12.00;10.90;;;13.10;1.00;;;;;;5003362;28;20572;-78
2023/05/11 04:54:01;;;;;;;11.20;10.20;;;13.20;1.00;;;;;;4998005;28;20501;-78
2023/05/11 04:56:28;;;;;;;11.37;10.27;;;13.20;1.00;;;;;;4995854;28;20932;-78
2023/05/11 04:58:58;;;;;;;10.93;10.03;;;13.30;1.00;;;;;;4994002;28;21461;-79
2023/05/11 05:01:25;;;;;;;30.90;27.83;;;13.30;1.00;;;;;;4995326;28;20497;-79
2023/05/11 05:03:52;;;;;;;12.37;10.33;;;13.30;1.00;;;;;;4997037;28;21085;-79
2023/05/11 05:06:19;;;;;;;10.90;9.97;;;13.40;1.00;;;;;;5000467;28;20544;-79
2023/05/11 05:08:48;;;;;;;11.00;10.00;;;13.50;1.00;;;;;;4994045;28;21227;-79
2023/05/11 05:11:16;;;;;;;11.40;10.50;;;13.50;1.00;;;;;;5001618;28;21265;-79
2023/05/11 05:13:44;;;;;;;13.53;10.70;;;13.50;1.00;;;;;;4999028;28;20453;-79
2023/05/11 05:16:11;;;;;;;11.30;10.40;;;13.50;1.00;;;;;;4988635;28;20468;-79
2023/05/11 05:18:38;;;;;;;11.53;10.47;;;13.70;1.00;;;;;;5004876;28;20595;-79
2023/05/11 05:21:06;;;;;;;11.83;10.83;;;13.80;1.00;;;;;;5001180;28;20575;-78
2023/05/11 05:23:33;;;;;;;11.17;10.23;;;13.90;1.00;;;;;;4983258;28;20527;-78
2023/05/11 05:26:02;;;;;;;11.93;10.60;;;14.00;1.00;;;;;;4997043;28;20481;-78
2023/05/11 05:28:29;;;;;;;10.60;9.60;;;14.00;1.00;;;;;;4997344;28;20973;-78
2023/05/11 05:30:56;;;;;;;13.77;11.50;;;14.00;1.00;;;;;;5000247;28;20551;-78
2023/05/11 05:33:23;;;;;;;12.77;11.07;;;14.00;1.00;;;;;;5000402;28;20586;-78
2023/05/11 05:35:50;;;;;;;12.67;11.37;;;14.20;1.00;;;;;;4999101;28;20976;-77
2023/05/11 05:38:19;;;;;;;10.60;9.80;;;14.40;1.00;;;;;;5002506;28;20500;-80
2023/05/11 05:40:46;;;;;;;10.27;9.37;;;14.50;1.00;;;;;;4998415;28;20534;-79
2023/05/11 05:43:14;;;;;;;14.00;10.23;;;14.60;1.00;;;;;;5005684;28;20460;-81
2023/05/11 05:45:41;;;;;;;10.33;9.60;;;14.70;1.00;;;;;;5001823;28;20490;-80
2023/05/11 05:48:08;;;;;;;15.83;10.90;;;14.80;1.00;;;;;;4981204;28;20455;-80
2023/05/11 05:50:38;;;;;;;11.27;10.30;;;14.90;1.00;;;;;;5001162;28;20499;-80
2023/05/11 05:53:06;;;;;;;11.37;10.37;;;15.00;1.00;;;;;;4985120;28;20564;-79
2023/05/11 05:55:33;;;;;;;10.20;9.10;;;15.20;1.00;;;;;;5004647;28;20482;-80
2023/05/11 05:58:00;;;;;;;10.70;9.63;;;15.30;1.00;;;;;;4998141;28;20472;-79
2023/05/11 06:00:29;;;;;;;9.83;8.93;;;15.30;1.00;;;;;;5003644;28;20565;-79
2023/05/11 06:02:56;;;;;;;11.50;9.13;;;15.40;1.00;;;;;;4997814;28;21257;-80
2023/05/11 06:05:24;;;;;;;11.20;10.10;;;15.50;1.00;;;;;;5007449;28;20565;-81
2023/05/11 06:07:51;;;;;;;10.27;9.20;;;15.80;1.00;;;;;;4999174;28;20486;-81
2023/05/11 06:10:18;;;;;;;9.90;9.00;;;15.90;1.00;;;;;;5002823;28;20474;-81
2023/05/11 06:12:45;;;;;;;9.50;8.57;;;16.00;1.00;;;;;;5002353;28;20477;-83
2023/05/11 06:15:13;;;;;;;8.60;8.00;;;16.10;1.00;;;;;;5002495;28;20519;-82
2023/05/11 06:17:41;;;;;;;9.57;8.50;;;16.10;1.00;;;;;;5006084;28;20541;-83
2023/05/11 06:20:11;;;;;;;7.40;6.77;;;16.20;1.00;;;;;;4991658;28;20470;-84
2023/05/11 06:22:39;;;;;;;7.63;7.07;;;16.30;1.00;;;;;;4987815;28;20902;-84
2023/05/11 06:25:08;;;;;;;7.77;7.07;;;16.40;1.00;;;;;;5006499;28;20466;-83
2023/05/11 06:27:35;;;;;;;8.80;8.10;;;16.50;1.00;;;;;;5006713;28;20494;-83
2023/05/11 06:30:02;;;;;;;7.83;7.13;;;16.70;1.00;;;;;;5009876;28;20506;-85
2023/05/11 06:32:29;;;;;;;8.83;8.10;;;16.70;1.00;;;;;;5007466;28;20514;-83
2023/05/11 06:34:59;;;;;;;7.10;6.57;;;16.70;1.00;;;;;;5005629;28;20550;-82
2023/05/11 06:37:28;;;;;;;7.63;6.93;;;16.70;1.00;;;;;;5004478;28;20597;-83
2023/05/11 06:39:55;;;;;;;8.17;7.47;;;16.80;1.00;;;;;;5002894;28;21063;-84
2023/05/11 06:42:23;;;;;;;7.87;6.83;;;17.00;1.00;;;;;;5010294;28;20455;-84
2023/05/11 06:44:50;;;;;;;7.67;6.63;;;17.00;1.00;;;;;;5007551;28;20475;-81
2023/05/11 06:47:17;;;;;;;7.40;6.80;;;16.90;1.00;;;;;;5008486;28;20920;-85
2023/05/11 06:49:45;;;;;;;7.77;6.50;;;17.00;1.00;;;;;;5010964;28;21064;-84
2023/05/11 06:52:13;;;;;;;7.07;6.50;;;17.10;1.00;;;;;;5015735;28;20454;-87
2023/05/11 06:54:40;;;;;;;7.13;6.43;;;17.30;1.00;;;;;;5013258;28;20459;-88
2023/05/11 06:57:07;;;;;;;6.70;6.10;;;17.50;1.00;;;;;;5004816;28;20469;-84
2023/05/11 06:59:34;;;;;;;7.00;6.50;;;17.60;1.00;;;;;;5008430;28;21701;-83
2023/05/11 07:02:01;;;;;;;8.73;6.40;;;17.80;1.00;;;;;;5010460;28;20490;-85
2023/05/11 07:04:28;;;;;;;11.23;6.77;;;18.00;1.00;;;;;;5011406;28;20448;-90
2023/05/11 07:06:55;;;;;;;7.57;6.90;;;18.00;1.00;;;;;;5019846;28;20434;-88
2023/05/11 07:09:24;;;;;;;8.30;6.87;;;18.10;1.00;;;;;;5000022;28;20448;-85
2023/05/11 07:11:51;;;;;;;8.17;6.40;;;18.20;1.00;;;;;;5007635;28;20460;-86
2023/05/11 07:14:18;;;;;;;6.80;4.77;;;18.30;1.00;;;;;;5008326;28;20522;-85
2023/05/11 07:16:45;;;;;;;5.90;5.33;;;18.50;1.00;;;;;;5010272;28;20427;-86
2023/05/11 07:19:13;;;;;;;7.67;4.57;;;18.60;1.00;;;;;;5005063;28;21001;-85
2023/05/11 07:21:40;;;;;;;4.77;4.27;;;18.70;1.00;;;;;;5010688;28;20433;-86
2023/05/11 07:24:07;;;;;;;5.33;4.60;;;18.70;1.00;;;;;;5011588;28;20460;-84
2023/05/11 07:26:36;;;;;;;5.20;4.70;;;18.70;1.00;;;;;;5013708;28;20472;-85
2023/05/11 07:29:03;;;;;;;5.20;4.70;;;18.80;1.00;;;;;;5011915;28;20443;-86
2023/05/11 07:31:30;;;;;;;6.43;4.73;;;18.90;1.00;;;;;;5008456;28;20428;-87
2023/05/11 07:33:57;;;;;;;5.77;5.20;;;19.10;1.00;;;;;;5011653;28;20446;-84
2023/05/11 07:36:25;;;;;;;5.67;5.03;;;19.30;1.00;;;;;;5016580;28;20471;-89
2023/05/11 07:38:52;;;;;;;5.70;5.10;;;19.40;1.00;;;;;;5015727;28;20469;-86
2023/05/11 07:41:21;;;;;;;4.90;4.40;;;19.40;1.00;;;;;;5013268;28;20539;-83
2023/05/11 07:43:50;;;;;;;4.47;4.07;;;19.30;1.00;;;;;;5008085;28;20558;-85
2023/05/11 07:46:18;;;;;;;5.40;5.00;;;19.60;1.00;;;;;;5014737;28;20558;-88
2023/05/11 07:48:47;;;;;;;4.37;3.93;;;19.90;1.00;;;;;;5011169;28;20511;-87
2023/05/11 07:51:14;;;;;;;5.80;4.87;;;20.00;1.00;;;;;;5007674;28;20513;-84
2023/05/11 07:53:41;;;;;;;6.00;4.77;;;20.00;1.00;;;;;;5007541;28;20469;-86
2023/05/11 07:56:09;;;;;;;8.10;5.53;;;20.10;1.00;;;;;;5011960;28;20454;-85
2023/05/11 07:58:36;;;;;;;6.47;4.80;;;20.20;1.00;;;;;;5011052;28;20477;-85
2023/05/11 08:01:05;;;;;;;5.20;4.70;;;20.40;1.00;;;;;;5006742;28;20494;-83
2023/05/11 08:03:32;;;;;;;4.70;4.20;;;20.50;1.00;;;;;;5002328;28;20582;-85
2023/05/11 08:06:01;;;;;;;6.60;4.23;;;20.40;1.00;;;;;;4999438;28;20447;-83
2023/05/11 08:08:29;;;;;;;9.80;5.13;;;20.50;1.00;;;;;;5004518;28;20458;-85
2023/05/11 08:10:56;;;;;;;4.53;4.23;;;20.70;1.00;;;;;;5003285;28;20546;-83
2023/05/11 08:13:23;;;;;;;5.83;4.60;;;20.60;1.00;;;;;;5006742;28;20499;-84
2023/05/11 08:15:50;;;;;;;10.43;7.03;;;20.60;1.00;;;;;;5005523;28;20468;-83
2023/05/11 08:18:18;;;;;;;4.50;4.10;;;20.70;1.00;;;;;;4994904;28;20515;-86
2023/05/11 08:20:48;;;;;;;5.17;4.67;;;21.00;1.00;;;;;;4992222;28;20460;-87
2023/05/11 08:23:17;;;;;;;4.87;4.47;;;21.10;1.00;;;;;;5012855;28;20459;-85
2023/05/11 08:25:50;;;;;;;4.20;3.90;;;21.20;1.00;;;;;;5011827;28;21386;-85
2023/05/11 08:28:17;;;;;;;5.00;4.50;;;21.20;1.00;;;;;;5013965;28;20472;-87
2023/05/11 08:30:44;;;;;;;4.83;4.40;;;21.40;1.00;;;;;;5009967;28;20464;-85
2023/05/11 08:33:12;;;;;;;4.50;4.10;;;21.30;1.00;;;;;;5011425;28;20447;-82
2023/05/11 08:35:41;;;;;;;4.40;4.00;;;21.30;1.00;;;;;;5010757;28;20480;-90
2023/05/11 08:38:09;;;;;;;10.73;5.10;;;21.50;1.00;;;;;;5018658;28;20485;-87
2023/05/11 08:40:36;;;;;;;5.80;5.27;;;21.60;1.00;;;;;;4997201;28;20448;-87
2023/05/11 08:43:06;;;;;;;5.77;4.73;;;21.70;1.00;;;;;;5021682;28;20544;-90
2023/05/11 08:45:35;;;;;;;6.53;4.47;;;22.00;1.00;;;;;;5009771;28;20473;-86
2023/05/11 08:48:03;;;;;;;5.40;4.90;;;22.00;1.00;;;;;;5020090;28;20459;-88
2023/05/11 08:50:30;;;;;;;4.70;4.30;;;21.90;1.00;;;;;;5019800;28;20453;-90
2023/05/11 08:52:58;;;;;;;6.40;4.60;;;21.90;1.00;;;;;;5016528;28;20450;-89
2023/05/11 08:55:28;;;;;;;4.87;4.47;;;22.20;1.00;;;;;;5017486;28;20559;-90
2023/05/11 08:57:57;;;;;;;4.83;4.37;;;22.30;1.00;;;;;;5016697;28;20477;-87
2023/05/11 09:00:25;;;;;;;5.23;4.57;;;22.50;1.00;;;;;;5016059;28;20554;-87
2023/05/11 09:02:53;;;;;;;6.20;4.37;;;22.50;1.00;;;;;;5015538;28;20463;-86
2023/05/11 09:05:20;;;;;;;3.80;3.50;;;22.50;1.00;;;;;;5010246;28;20431;-90
2023/05/11 09:07:51;;;;;;;4.67;4.27;;;22.50;1.00;;;;;;5010675;28;21009;-90
2023/05/11 09:10:23;;;;;;;10.47;4.67;;;22.50;1.00;;;;;;5013661;28;21217;-91
2023/05/11 09:12:58;;;;;;;6.30;4.20;;;22.70;1.00;;;;;;5008959;28;20461;-88
2023/05/11 09:15:28;;;;;;;4.97;4.40;;;23.10;1.00;;;;;;4988314;28;20458;-85
2023/05/11 09:17:55;;;;;;;4.10;3.80;;;23.20;1.00;;;;;;5016530;28;20530;-89
2023/05/11 09:20:27;;;;;;;4.30;3.90;;;23.30;1.00;;;;;;5006008;28;20432;-91
2023/05/11 09:22:56;;;;;;;5.07;3.80;;;23.60;1.00;;;;;;4995227;28;20485;-84
2023/05/11 09:25:26;;;;;;;4.60;3.73;;;24.20;1.00;;;;;;4990481;28;20554;-84
2023/05/11 09:27:53;;;;;;;4.20;3.77;;;25.10;1.00;;;;;;4993178;28;20504;-89
2023/05/11 09:30:21;;;;;;;6.37;4.23;;;25.60;1.00;;;;;;5007011;28;20460;-86
2023/05/11 09:32:50;;;;;;;2.97;2.77;;;26.30;1.00;;;;;;5004976;28;20470;-89
2023/05/11 09:35:22;;;;;;;6.10;3.23;;;26.50;1.00;;;;;;5012498;28;20456;-87
2023/05/11 09:38:01;;;;;;;4.20;3.80;;;26.50;1.00;;;;;;5016902;28;20476;-88
2023/05/11 09:40:30;;;;;;;4.00;3.60;;;27.00;1.00;;;;;;5005974;28;20678;-88
2023/05/11 09:42:57;;;;;;;3.07;2.77;;;27.60;1.00;;;;;;5006056;28;20499;-87
2023/05/11 09:45:37;;;;;;;3.90;3.50;;;28.40;1.00;;;;;;5006189;28;21239;-88
2023/05/11 09:48:04;;;;;;;3.63;3.33;;;28.70;1.00;;;;;;4982495;28;20542;-89
2023/05/11 09:50:36;;;;;;;4.13;3.50;;;27.30;1.00;;;;;;5005992;28;20490;-90
2023/05/11 09:53:03;;;;;;;6.60;2.87;;;28.20;1.00;;;;;;5010775;28;20461;-89
2023/05/11 09:55:31;;;;;;;2.80;2.57;;;28.60;1.00;;;;;;5007783;28;20473;-91
2023/05/11 09:57:59;;;;;;;4.07;3.50;;;28.50;1.00;;;;;;5016774;28;20471;-89
2023/05/11 10:00:29;;;;;;;5.77;3.17;;;28.00;1.00;;;;;;5010904;28;20806;-88
2023/05/11 10:03:03;;;;;;;5.30;3.63;;;28.90;1.00;;;;;;5013338;28;20478;-87
2023/05/11 10:05:31;;;;;;;3.23;2.63;;;29.50;1.00;;;;;;5014013;28;20544;-88
2023/05/11 10:08:00;;;;;;;5.60;3.00;;;30.00;1.00;;;;;;4990518;28;20906;-87
2023/05/11 10:10:29;;;;;;;3.50;2.80;;;30.60;1.00;;;;;;5010719;28;20505;-87
2023/05/11 10:12:59;;;;;;;3.00;2.77;;;30.00;1.00;;;;;;5011913;28;20474;-86
2023/05/11 10:15:29;;;;;;;5.73;3.40;;;30.10;1.00;;;;;;5008630;28;20435;-86
2023/05/11 10:17:58;;;;;;;3.40;3.10;;;30.40;1.00;;;;;;5008294;28;20466;-86
2023/05/11 10:20:27;;;;;;;5.40;2.77;;;30.20;1.00;;;;;;5009223;28;20494;-85
2023/05/11 10:22:55;;;;;;;5.03;3.47;;;31.00;1.00;;;;;;5010859;28;20434;-80
2023/05/11 10:25:23;;;;;;;3.13;2.83;;;31.30;1.00;;;;;;5012565;28;20410;-87
2023/05/11 10:27:50;;;;;;;4.10;3.40;;;31.00;1.00;;;;;;5004642;28;20525;-82
2023/05/11 10:30:20;;;;;;;4.47;2.73;;;30.40;1.00;;;;;;5005568;28;20458;-86
2023/05/11 10:32:47;;;;;;;4.10;2.73;;;30.40;1.00;;;;;;5001184;28;21332;-87
2023/05/11 10:35:14;;;;;;;4.20;3.80;;;30.20;1.00;;;;;;4997395;28;20450;-87
2023/05/11 10:37:42;;;;;;;4.93;3.20;;;30.50;1.00;;;;;;5007168;28;20465;-86
2023/05/11 10:40:10;;;;;;;3.03;2.83;;;31.20;1.00;;;;;;5001399;28;20463;-85
2023/05/11 10:43:13;;;;;;;3.70;3.40;;;31.10;1.00;;;;;;5006997;28;20462;-85
2023/05/11 10:45:51;;;;;;;4.20;3.00;;;30.70;1.00;;;;;;5006619;28;20453;-87
2023/05/11 10:48:54;;;;;;;2.73;2.53;;;30.20;1.00;;;;;;5008184;28;20457;-87
2023/05/11 10:51:50;;;;;;;3.43;2.90;;;29.10;1.00;;;;;;4985601;28;20460;-86
2023/05/11 10:54:29;;;;;;;3.20;3.00;;;27.90;1.00;;;;;;5008558;28;21354;-87
2023/05/11 10:57:15;;;;;;;4.13;2.70;;;27.50;1.00;;;;;;5002664;28;20519;-87
2023/05/11 11:00:29;;;;;;;3.17;2.87;;;28.00;1.00;;;;;;5012816;28;20630;-87
2023/05/11 11:02:57;;;;;;;3.20;2.87;;;28.60;1.00;;;;;;5002211;28;20437;-89
2023/05/11 11:05:36;;;;;;;4.97;4.50;;;29.00;1.00;;;;;;5006761;28;20440;-86
2023/05/11 11:08:06;;;;;;;4.30;3.70;;;28.00;1.00;;;;;;5004636;28;20468;-86
2023/05/11 11:10:35;;;;;;;2.93;2.63;;;27.30;1.00;;;;;;5003238;28;20471;-83
2023/05/11 11:13:05;;;;;;;4.50;2.67;;;26.50;1.00;;;;;;5003225;28;20461;-82
2023/05/11 11:16:09;;;;;;;2.77;2.50;;;25.90;1.00;;;;;;5009928;28;20452;-82
2023/05/11 11:18:40;;;;;;;6.70;3.53;;;27.10;1.00;;;;;;5003661;28;20484;-84
2023/05/11 11:21:07;;;;;;;2.93;2.70;;;29.40;1.00;;;;;;5008697;28;21193;-84
2023/05/11 11:23:51;;;;;;;9.23;3.20;;;29.90;1.00;;;;;;5013484;28;20496;-88
2023/05/11 11:26:40;;;;;;;5.40;4.10;;;28.90;1.00;;;;;;4992791;28;20488;-84
2023/05/11 11:29:14;;;;;;;4.47;2.83;;;28.10;1.00;;;;;;5004435;28;20503;-82
2023/05/11 11:31:41;;;;;;;2.93;2.63;;;28.00;1.00;;;;;;4999307;28;20540;-83
2023/05/11 11:34:37;;;;;;;8.27;7.47;;;28.00;1.00;;;;;;5003401;28;20463;-84
2023/05/11 11:37:12;;;;;;;3.80;3.40;;;27.40;1.00;;;;;;5005393;28;20555;-84
2023/05/11 11:39:48;;;;;;;5.63;3.60;;;26.20;1.00;;;;;;5007268;28;20466;-82
2023/05/11 11:42:17;;;;;;;3.47;3.17;;;25.50;1.00;;;;;;5010144;28;20461;-84
2023/05/11 11:44:44;;;;;;;3.70;3.40;;;25.20;1.00;;;;;;5013068;28;20529;-89
2023/05/11 11:47:12;;;;;;;3.60;3.07;;;25.00;1.00;;;;;;5000649;28;20491;-84
2023/05/11 11:49:43;;;;;;;4.00;3.33;;;24.60;1.00;;;;;;5012351;28;20471;-87
2023/05/11 11:52:15;;;;;;;5.23;3.83;;;24.60;1.00;;;;;;5009314;28;20919;-84
2023/05/11 11:54:44;;;;;;;3.30;3.00;;;24.30;1.00;;;;;;5016045;28;20956;-91
2023/05/11 11:57:42;;;;;;;4.00;3.70;;;24.60;1.00;;;;;;5017631;28;20892;-89
2023/05/11 12:00:11;;;;;;;4.33;2.80;;;24.70;1.00;;;;;;5012983;28;20479;-93
2023/05/11 12:02:41;;;;;;;4.70;3.07;;;24.30;1.00;;;;;;5014553;28;20457;-86
2023/05/11 12:05:13;;;;;;;2.30;2.20;;;24.60;1.00;;;;;;5002690;28;20976;-84
2023/05/11 12:07:43;;;;;;;4.77;3.50;;;24.40;1.00;;;;;;5002057;28;20475;-89
2023/05/11 12:10:13;;;;;;;2.93;2.63;;;24.40;1.00;;;;;;5014487;28;20465;-86
2023/05/11 12:12:40;;;;;;;4.13;3.10;;;24.70;1.00;;;;;;5012375;28;20983;-86
2023/05/11 12:15:08;;;;;;;3.00;2.70;;;24.80;1.00;;;;;;5006666;28;20486;-85
2023/05/11 12:17:38;;;;;;;4.07;2.60;;;25.10;1.00;;;;;;5012121;28;20515;-86
2023/05/11 12:20:15;;;;;;;3.10;2.50;;;26.20;1.00;;;;;;5007570;28;20465;-83
2023/05/11 12:22:43;;;;;;;5.53;2.60;;;27.30;1.00;;;;;;5011201;28;20485;-85
2023/05/11 12:25:11;;;;;;;3.37;2.90;;;28.30;1.00;;;;;;5006407;28;21503;-86
2023/05/11 12:27:50;;;;;;;4.70;2.90;;;29.10;1.00;;;;;;5005847;28;20466;-87
2023/05/11 12:30:21;;;;;;;2.70;2.50;;;30.10;1.00;;;;;;5013691;28;20458;-85
2023/05/11 12:32:50;;;;;;;4.17;2.53;;;30.10;1.00;;;;;;5011784;28;20446;-91
2023/05/11 12:35:24;;;;;;;3.57;2.63;;;31.10;1.00;;;;;;4979187;28;20474;-87
2023/05/11 12:37:51;;;;;;;3.47;2.87;;;30.50;1.00;;;;;;5012462;28;20458;-87
2023/05/11 12:40:18;;;;;;;2.70;2.50;;;28.60;1.00;;;;;;5010966;28;20440;-87
2023/05/11 12:42:53;;;;;;;2.83;2.37;;;27.30;1.00;;;;;;5009193;28;20445;-87
2023/05/11 12:45:22;;;;;;;2.77;2.47;;;27.50;1.00;;;;;;5010179;28;20430;-85
2023/05/11 12:47:50;;;;;;;3.97;2.27;;;29.20;1.00;;;;;;5011078;28;20473;-90
2023/05/11 12:50:22;;;;;;;2.80;2.43;;;30.40;1.00;;;;;;5009012;28;20496;-86
2023/05/11 12:52:51;;;;;;;4.07;2.73;;;30.20;1.00;;;;;;5012089;28;20637;-92
2023/05/11 12:55:30;;;;;;;3.20;2.43;;;30.60;1.00;;;;;;5006741;28;20468;-94
2023/05/11 12:58:08;;;;;;;4.63;2.63;;;31.30;1.00;;;;;;5005160;28;20490;-85
2023/05/11 13:00:35;;;;;;;2.67;2.47;;;31.20;1.00;;;;;;5002161;28;20470;-86